sensor_id;sensor_type;location;lat;lon;timestamp;pressure;altitude;pressure_sealevel;temperature;humidity
39491;BME280;25175;50.140;18.990;2023-04-25T00:02:00;97428.47;;;11.49;66.50
39491;BME280;25175;50.140;18.990;2023-04-25T00:05:14;97442.13;;;11.51;66.32
39491;BME280;25175;50.140;18.990;2023-04-25T00:08:25;97423.66;;;11.46;66.21
39491;BME280;25175;50.140;18.990;2023-04-25T00:15:32;97442.38;;;11.50;66.55
39491;BME280;25175;50.140;18.990;2023-04-25T00:18:43;97440.78;;;11.49;66.50
39491;BME280;25175;50.140;18.990;2023-04-25T00:22:04;97443.66;;;11.47;66.43
39491;BME280;25175;50.140;18.990;2023-04-25T00:25:31;97443.91;;;11.46;66.58
39491;BME280;25175;50.140;18.990;2023-04-25T00:28:49;97437.03;;;11.45;66.65
39491;BME280;25175;50.140;18.990;2023-04-25T00:31:56;97442.78;;;11.42;66.41
39491;BME280;25175;50.140;18.990;2023-04-25T00:35:05;97429.94;;;11.29;66.58
39491;BME280;25175;50.140;18.990;2023-04-25T00:38:17;97424.28;;;11.20;67.20
39491;BME280;25175;50.140;18.990;2023-04-25T00:41:26;97444.81;;;11.23;67.12
39491;BME280;25175;50.140;18.990;2023-04-25T00:44:40;97442.34;;;11.17;67.22
39491;BME280;25175;50.140;18.990;2023-04-25T00:47:47;97450.72;;;11.14;67.47
39491;BME280;25175;50.140;18.990;2023-04-25T00:51:15;97340.97;;;10.27;67.29
39491;BME280;25175;50.140;18.990;2023-04-25T00:54:34;97441.63;;;11.05;67.73
39491;BME280;25175;50.140;18.990;2023-04-25T00:57:49;97437.84;;;11.01;67.64
39491;BME280;25175;50.140;18.990;2023-04-25T01:01:03;97436.44;;;10.93;67.41
39491;BME280;25175;50.140;18.990;2023-04-25T01:04:17;97437.66;;;10.91;67.23
39491;BME280;25175;50.140;18.990;2023-04-25T01:07:24;97440.97;;;10.86;67.24
39491;BME280;25175;50.140;18.990;2023-04-25T01:10:37;97434.28;;;10.79;67.03
39491;BME280;25175;50.140;18.990;2023-04-25T01:13:47;97447.88;;;10.76;67.59
39491;BME280;25175;50.140;18.990;2023-04-25T01:16:55;97434.09;;;10.69;67.53
39491;BME280;25175;50.140;18.990;2023-04-25T01:20:06;97443.47;;;10.65;67.58
39491;BME280;25175;50.140;18.990;2023-04-25T01:23:38;97449.41;;;10.60;67.64
39491;BME280;25175;50.140;18.990;2023-04-25T01:26:51;97449.53;;;10.54;67.20
39491;BME280;25175;50.140;18.990;2023-04-25T01:30:22;97452.88;;;10.49;67.28
39491;BME280;25175;50.140;18.990;2023-04-25T01:33:44;97452.66;;;10.39;66.21
39491;BME280;25175;50.140;18.990;2023-04-25T01:37:10;97463.50;;;10.31;66.06
39491;BME280;25175;50.140;18.990;2023-04-25T01:40:21;97458.03;;;10.21;65.51
39491;BME280;25175;50.140;18.990;2023-04-25T01:43:28;97458.41;;;10.13;65.31
39491;BME280;25175;50.140;18.990;2023-04-25T01:46:46;97456.13;;;10.05;65.19
39491;BME280;25175;50.140;18.990;2023-04-25T01:53:49;97462.72;;;9.85;65.06
39491;BME280;25175;50.140;18.990;2023-04-25T01:57:08;97464.06;;;9.76;64.79
39491;BME280;25175;50.140;18.990;2023-04-25T02:00:33;97473.41;;;9.72;64.92
39491;BME280;25175;50.140;18.990;2023-04-25T02:03:44;97481.72;;;9.69;65.23
39491;BME280;25175;50.140;18.990;2023-04-25T02:06:59;97473.84;;;9.69;65.23
39491;BME280;25175;50.140;18.990;2023-04-25T02:10:38;97485.13;;;9.69;65.63
39491;BME280;25175;50.140;18.990;2023-04-25T02:13:57;97473.84;;;9.69;65.71
39491;BME280;25175;50.140;18.990;2023-04-25T02:21:19;97481.97;;;9.67;65.84
39491;BME280;25175;50.140;18.990;2023-04-25T02:24:29;97271.44;;;8.35;65.92
39491;BME280;25175;50.140;18.990;2023-04-25T02:27:39;97466.69;;;9.53;65.96
39491;BME280;25175;50.140;18.990;2023-04-25T02:39:58;97485.56;;;9.55;65.25
39491;BME280;25175;50.140;18.990;2023-04-25T02:43:04;97506.19;;;9.51;65.02
39491;BME280;25175;50.140;18.990;2023-04-25T02:46:11;97491.38;;;9.45;64.98
39491;BME280;25175;50.140;18.990;2023-04-25T02:49:17;97491.81;;;9.42;65.26
39491;BME280;25175;50.140;18.990;2023-04-25T02:52:28;97488.41;;;9.42;65.52
39491;BME280;25175;50.140;18.990;2023-04-25T02:56:04;97487.59;;;9.41;65.13
39491;BME280;25175;50.140;18.990;2023-04-25T02:59:24;97488.28;;;9.37;64.67
39491;BME280;25175;50.140;18.990;2023-04-25T03:02:53;97488.72;;;9.34;64.85
39491;BME280;25175;50.140;18.990;2023-04-25T03:06:03;97489.94;;;9.31;64.62
39491;BME280;25175;50.140;18.990;2023-04-25T03:09:30;97485.53;;;9.32;64.65
39491;BME280;25175;50.140;18.990;2023-04-25T03:12:40;97491.31;;;9.34;64.71
39491;BME280;25175;50.140;18.990;2023-04-25T03:16:19;97475.19;;;9.37;64.30
39491;BME280;25175;50.140;18.990;2023-04-25T03:19:28;97492.13;;;9.34;64.37
39491;BME280;25175;50.140;18.990;2023-04-25T03:22:57;97213.25;;;7.69;64.19
39491;BME280;25175;50.140;18.990;2023-04-25T03:26:05;97478.69;;;9.31;64.22
39491;BME280;25175;50.140;18.990;2023-04-25T03:29:20;97493.03;;;9.28;63.53
39491;BME280;25175;50.140;18.990;2023-04-25T03:32:32;97495.28;;;9.25;63.49
39491;BME280;25175;50.140;18.990;2023-04-25T03:35:38;97498.91;;;9.24;63.71
39491;BME280;25175;50.140;18.990;2023-04-25T03:38:47;97506.78;;;9.24;63.41
39491;BME280;25175;50.140;18.990;2023-04-25T03:41:55;97509.97;;;9.26;62.95
39491;BME280;25175;50.140;18.990;2023-04-25T03:45:10;97495.19;;;9.20;63.01
39491;BME280;25175;50.140;18.990;2023-04-25T03:48:16;97502.69;;;9.28;63.24
39491;BME280;25175;50.140;18.990;2023-04-25T03:51:46;97495.94;;;9.20;63.12
39491;BME280;25175;50.140;18.990;2023-04-25T03:54:57;97503.25;;;9.30;63.49
39491;BME280;25175;50.140;18.990;2023-04-25T03:58:21;97523.41;;;9.29;63.08
39491;BME280;25175;50.140;18.990;2023-04-25T04:01:35;97527.41;;;9.32;62.98
39491;BME280;25175;50.140;18.990;2023-04-25T04:04:42;97520.00;;;9.29;63.10
39491;BME280;25175;50.140;18.990;2023-04-25T04:07:52;97525.44;;;9.27;62.64
39491;BME280;25175;50.140;18.990;2023-04-25T04:11:33;97522.81;;;9.27;62.52
39491;BME280;25175;50.140;18.990;2023-04-25T04:14:40;97521.59;;;9.30;62.88
39491;BME280;25175;50.140;18.990;2023-04-25T04:21:32;97574.88;;;9.35;63.33
39491;BME280;25175;50.140;18.990;2023-04-25T04:24:56;97536.41;;;9.36;63.50
39491;BME280;25175;50.140;18.990;2023-04-25T04:28:27;97538.03;;;9.37;62.52
39491;BME280;25175;50.140;18.990;2023-04-25T04:32:06;97522.59;;;9.29;62.46
39491;BME280;25175;50.140;18.990;2023-04-25T04:35:21;97556.47;;;9.42;61.98
39491;BME280;25175;50.140;18.990;2023-04-25T04:38:32;97534.16;;;9.39;61.92
39491;BME280;25175;50.140;18.990;2023-04-25T04:41:50;97546.44;;;9.39;61.99
39491;BME280;25175;50.140;18.990;2023-04-25T04:45:26;97551.47;;;9.40;62.33
39491;BME280;25175;50.140;18.990;2023-04-25T04:49:00;97518.94;;;9.18;61.58
39491;BME280;25175;50.140;18.990;2023-04-25T04:52:24;97532.41;;;9.33;61.90
39491;BME280;25175;50.140;18.990;2023-04-25T04:56:01;97535.63;;;9.35;62.78
39491;BME280;25175;50.140;18.990;2023-04-25T04:59:35;97521.16;;;9.33;62.80
39491;BME280;25175;50.140;18.990;2023-04-25T05:02:48;97539.75;;;9.43;62.22
39491;BME280;25175;50.140;18.990;2023-04-25T05:06:25;97525.06;;;9.42;62.37
39491;BME280;25175;50.140;18.990;2023-04-25T05:10:17;97532.44;;;9.45;61.93
39491;BME280;25175;50.140;18.990;2023-04-25T05:18:16;97534.25;;;9.44;62.19
39491;BME280;25175;50.140;18.990;2023-04-25T05:21:33;97534.03;;;9.46;62.10
39491;BME280;25175;50.140;18.990;2023-04-25T05:25:17;97537.81;;;9.50;62.43
39491;BME280;25175;50.140;18.990;2023-04-25T05:29:29;97537.81;;;9.50;61.91
39491;BME280;25175;50.140;18.990;2023-04-25T05:32:54;97532.03;;;9.48;61.56
39491;BME280;25175;50.140;18.990;2023-04-25T05:36:23;97533.34;;;9.39;61.24
39491;BME280;25175;50.140;18.990;2023-04-25T05:39:30;97539.41;;;9.51;61.20
39491;BME280;25175;50.140;18.990;2023-04-25T05:42:54;97539.41;;;9.51;61.08
39491;BME280;25175;50.140;18.990;2023-04-25T05:46:26;97541.00;;;9.52;61.29
39491;BME280;25175;50.140;18.990;2023-04-25T05:50:00;97556.50;;;9.53;61.28
39491;BME280;25175;50.140;18.990;2023-04-25T05:53:25;97545.81;;;9.55;61.42
39491;BME280;25175;50.140;18.990;2023-04-25T05:56:44;97547.63;;;9.54;60.42
39491;BME280;25175;50.140;18.990;2023-04-25T05:59:54;97547.84;;;9.53;59.89
39491;BME280;25175;50.140;18.990;2023-04-25T06:03:16;97551.94;;;9.49;59.14
39491;BME280;25175;50.140;18.990;2023-04-25T06:06:22;97554.22;;;9.45;58.73
39491;BME280;25175;50.140;18.990;2023-04-25T06:09:29;97546.22;;;9.40;58.75
39491;BME280;25175;50.140;18.990;2023-04-25T06:12:46;97549.28;;;9.37;59.10
39491;BME280;25175;50.140;18.990;2023-04-25T06:19:41;97557.13;;;9.37;59.08
39491;BME280;25175;50.140;18.990;2023-04-25T06:22:50;97548.84;;;9.11;59.10
39491;BME280;25175;50.140;18.990;2023-04-25T06:26:20;97557.81;;;9.33;58.40
39491;BME280;25175;50.140;18.990;2023-04-25T06:29:28;97533.28;;;9.16;59.23
39491;BME280;25175;50.140;18.990;2023-04-25T06:33:00;97568.28;;;9.33;58.60
39491;BME280;25175;50.140;18.990;2023-04-25T06:36:11;97567.25;;;9.34;58.62
39491;BME280;25175;50.140;18.990;2023-04-25T06:39:22;97570.31;;;9.31;58.54
39491;BME280;25175;50.140;18.990;2023-04-25T06:42:31;97569.66;;;9.35;59.20
39491;BME280;25175;50.140;18.990;2023-04-25T06:45:56;97567.59;;;9.37;58.22
39491;BME280;25175;50.140;18.990;2023-04-25T06:49:36;97561.34;;;9.38;58.22
39491;BME280;25175;50.140;18.990;2023-04-25T06:52:44;97570.91;;;9.44;58.16
39491;BME280;25175;50.140;18.990;2023-04-25T06:56:06;97569.91;;;9.45;58.21
39491;BME280;25175;50.140;18.990;2023-04-25T06:59:29;97557.19;;;9.49;57.94
39491;BME280;25175;50.140;18.990;2023-04-25T07:02:36;97561.53;;;9.55;57.65
39491;BME280;25175;50.140;18.990;2023-04-25T07:05:42;97552.97;;;9.59;57.03
39491;BME280;25175;50.140;18.990;2023-04-25T07:08:51;97558.91;;;9.66;57.10
39491;BME280;25175;50.140;18.990;2023-04-25T07:11:58;97570.09;;;9.73;57.13
39491;BME280;25175;50.140;18.990;2023-04-25T07:15:08;97564.41;;;9.76;57.02
39491;BME280;25175;50.140;18.990;2023-04-25T07:18:18;97561.22;;;9.74;56.07
39491;BME280;25175;50.140;18.990;2023-04-25T07:21:30;97560.88;;;9.71;56.23
39491;BME280;25175;50.140;18.990;2023-04-25T07:24:41;97554.81;;;9.70;56.42
39491;BME280;25175;50.140;18.990;2023-04-25T07:27:54;97561.66;;;9.71;56.53
39491;BME280;25175;50.140;18.990;2023-04-25T07:34:33;97544.81;;;9.67;56.43
39491;BME280;25175;50.140;18.990;2023-04-25T07:37:40;97572.75;;;9.85;56.79
39491;BME280;25175;50.140;18.990;2023-04-25T07:41:02;97552.75;;;9.90;56.44
39491;BME280;25175;50.140;18.990;2023-04-25T07:44:11;97571.00;;;9.97;55.68
39491;BME280;25175;50.140;18.990;2023-04-25T07:51:28;97566.22;;;10.05;54.52
39491;BME280;25175;50.140;18.990;2023-04-25T07:54:40;97567.22;;;10.04;54.31
39491;BME280;25175;50.140;18.990;2023-04-25T07:57:57;97567.13;;;10.11;54.27
39491;BME280;25175;50.140;18.990;2023-04-25T08:01:05;97559.50;;;10.21;54.69
39491;BME280;25175;50.140;18.990;2023-04-25T08:04:22;97538.50;;;10.09;52.78
39491;BME280;25175;50.140;18.990;2023-04-25T08:07:59;97558.56;;;10.27;52.84
39491;BME280;25175;50.140;18.990;2023-04-25T08:11:06;97567.00;;;10.29;52.13
39491;BME280;25175;50.140;18.990;2023-04-25T08:14:15;97545.13;;;10.23;51.77
39491;BME280;25175;50.140;18.990;2023-04-25T08:17:23;97561.44;;;10.37;51.90
39491;BME280;25175;50.140;18.990;2023-04-25T08:20:32;97533.38;;;10.26;51.62
39491;BME280;25175;50.140;18.990;2023-04-25T08:23:47;97554.91;;;10.51;51.82
39491;BME280;25175;50.140;18.990;2023-04-25T08:27:28;97556.38;;;10.58;50.08
39491;BME280;25175;50.140;18.990;2023-04-25T08:30:38;97550.09;;;10.59;49.75
39491;BME280;25175;50.140;18.990;2023-04-25T08:33:55;97557.63;;;10.67;50.82
39491;BME280;25175;50.140;18.990;2023-04-25T08:37:14;97557.03;;;10.77;49.59
39491;BME280;25175;50.140;18.990;2023-04-25T08:40:39;97559.66;;;10.88;49.88
39491;BME280;25175;50.140;18.990;2023-04-25T08:48:00;97560.13;;;10.97;48.76
39491;BME280;25175;50.140;18.990;2023-04-25T08:51:12;97499.94;;;10.56;49.06
39491;BME280;25175;50.140;18.990;2023-04-25T08:54:28;97557.13;;;11.05;48.89
39491;BME280;25175;50.140;18.990;2023-04-25T08:57:38;97560.88;;;11.09;49.28
39491;BME280;25175;50.140;18.990;2023-04-25T09:00:46;97585.91;;;10.88;47.86
39491;BME280;25175;50.140;18.990;2023-04-25T09:03:57;97550.88;;;10.94;48.13
39491;BME280;25175;50.140;18.990;2023-04-25T09:07:07;97563.19;;;11.05;48.72
39491;BME280;25175;50.140;18.990;2023-04-25T09:10:14;97566.91;;;11.09;49.09
39491;BME280;25175;50.140;18.990;2023-04-25T09:13:25;97552.91;;;11.04;48.14
39491;BME280;25175;50.140;18.990;2023-04-25T09:17:01;97550.28;;;11.04;47.61
39491;BME280;25175;50.140;18.990;2023-04-25T09:20:42;97568.38;;;11.17;48.37
39491;BME280;25175;50.140;18.990;2023-04-25T09:23:50;97571.09;;;11.22;48.28
39491;BME280;25175;50.140;18.990;2023-04-25T09:27:03;97569.06;;;11.24;47.65
39491;BME280;25175;50.140;18.990;2023-04-25T09:30:29;97567.84;;;11.31;48.67
39491;BME280;25175;50.140;18.990;2023-04-25T09:34:02;97569.56;;;11.37;48.54
39491;BME280;25175;50.140;18.990;2023-04-25T09:37:23;97569.56;;;11.37;48.22
39491;BME280;25175;50.140;18.990;2023-04-25T09:40:41;97578.78;;;11.40;46.98
39491;BME280;25175;50.140;18.990;2023-04-25T09:43:57;97562.03;;;11.41;47.16
39491;BME280;25175;50.140;18.990;2023-04-25T09:47:13;97560.03;;;11.48;47.16
39491;BME280;25175;50.140;18.990;2023-04-25T09:50:25;97554.91;;;11.41;47.00
39491;BME280;25175;50.140;18.990;2023-04-25T09:53:46;97574.44;;;11.45;46.80
39491;BME280;25175;50.140;18.990;2023-04-25T09:57:09;97575.31;;;11.51;46.16
39491;BME280;25175;50.140;18.990;2023-04-25T10:00:19;97560.53;;;11.61;45.21
39491;BME280;25175;50.140;18.990;2023-04-25T10:03:26;97557.28;;;11.71;45.12
39491;BME280;25175;50.140;18.990;2023-04-25T10:06:52;97546.44;;;11.84;44.24
39491;BME280;25175;50.140;18.990;2023-04-25T10:10:05;97564.84;;;11.84;45.07
39491;BME280;25175;50.140;18.990;2023-04-25T10:13:17;97555.28;;;11.78;44.25
39491;BME280;25175;50.140;18.990;2023-04-25T10:16:49;97565.56;;;11.63;43.72
39491;BME280;25175;50.140;18.990;2023-04-25T10:20:14;97553.53;;;11.67;44.12
39491;BME280;25175;50.140;18.990;2023-04-25T10:23:21;97555.47;;;11.71;44.63
39491;BME280;25175;50.140;18.990;2023-04-25T10:26:31;97553.94;;;11.75;45.08
39491;BME280;25175;50.140;18.990;2023-04-25T10:29:38;97564.78;;;11.79;43.80
39491;BME280;25175;50.140;18.990;2023-04-25T10:32:47;97554.81;;;11.81;42.87
39491;BME280;25175;50.140;18.990;2023-04-25T10:35:58;97532.59;;;11.72;43.25
39491;BME280;25175;50.140;18.990;2023-04-25T10:39:22;97549.88;;;11.84;44.39
39491;BME280;25175;50.140;18.990;2023-04-25T10:42:32;97268.44;;;10.04;42.96
39491;BME280;25175;50.140;18.990;2023-04-25T10:45:51;97555.06;;;11.79;43.63
39491;BME280;25175;50.140;18.990;2023-04-25T10:49:03;97545.44;;;11.85;44.04
39491;BME280;25175;50.140;18.990;2023-04-25T10:52:25;97551.78;;;11.89;43.75
39491;BME280;25175;50.140;18.990;2023-04-25T10:55:52;97543.59;;;11.85;43.56
39491;BME280;25175;50.140;18.990;2023-04-25T10:59:08;97554.81;;;11.81;42.55
39491;BME280;25175;50.140;18.990;2023-04-25T11:02:23;97551.31;;;11.75;42.33
39491;BME280;25175;50.140;18.990;2023-04-25T11:05:34;97548.13;;;11.73;43.30
39491;BME280;25175;50.140;18.990;2023-04-25T11:08:48;97549.16;;;11.72;43.03
39491;BME280;25175;50.140;18.990;2023-04-25T11:11:55;97541.66;;;11.64;43.60
39491;BME280;25175;50.140;18.990;2023-04-25T11:15:51;97550.22;;;11.71;43.54
39491;BME280;25175;50.140;18.990;2023-04-25T11:18:57;97537.31;;;11.70;43.80
39491;BME280;25175;50.140;18.990;2023-04-25T11:22:14;97559.03;;;11.82;42.56
39491;BME280;25175;50.140;18.990;2023-04-25T11:25:20;97556.91;;;11.79;42.12
39491;BME280;25175;50.140;18.990;2023-04-25T11:28:30;97560.09;;;11.81;43.12
39491;BME280;25175;50.140;18.990;2023-04-25T11:31:47;97543.00;;;11.67;42.55
39491;BME280;25175;50.140;18.990;2023-04-25T11:34:53;97552.25;;;11.69;42.60
39491;BME280;25175;50.140;18.990;2023-04-25T11:38:02;97560.41;;;11.68;42.63
39491;BME280;25175;50.140;18.990;2023-04-25T11:41:08;97558.78;;;11.67;42.90
39491;BME280;25175;50.140;18.990;2023-04-25T11:44:22;97567.25;;;11.69;42.28
39491;BME280;25175;50.140;18.990;2023-04-25T11:47:36;97565.97;;;11.71;42.55
39491;BME280;25175;50.140;18.990;2023-04-25T11:50:54;97559.44;;;11.74;42.75
39491;BME280;25175;50.140;18.990;2023-04-25T11:54:00;97556.09;;;11.78;42.83
39491;BME280;25175;50.140;18.990;2023-04-25T11:57:05;97559.03;;;11.82;42.16
39491;BME280;25175;50.140;18.990;2023-04-25T12:00:16;97589.22;;;11.79;42.16
39491;BME280;25175;50.140;18.990;2023-04-25T12:03:25;97559.44;;;11.74;42.28
39491;BME280;25175;50.140;18.990;2023-04-25T12:06:37;97572.50;;;11.69;42.32
39491;BME280;25175;50.140;18.990;2023-04-25T12:09:51;97560.41;;;11.68;42.45
39491;BME280;25175;50.140;18.990;2023-04-25T12:13:00;97551.16;;;11.65;41.93
39491;BME280;25175;50.140;18.990;2023-04-25T12:16:22;97568.50;;;11.66;42.63
39491;BME280;25175;50.140;18.990;2023-04-25T12:19:39;97560.84;;;11.65;42.71
39491;BME280;25175;50.140;18.990;2023-04-25T12:22:47;97575.25;;;11.62;42.76
39491;BME280;25175;50.140;18.990;2023-04-25T12:25:57;97560.53;;;11.61;42.24
39491;BME280;25175;50.140;18.990;2023-04-25T12:29:15;97554.66;;;11.54;42.73
39491;BME280;25175;50.140;18.990;2023-04-25T12:32:25;97562.44;;;11.66;42.37
39491;BME280;25175;50.140;18.990;2023-04-25T12:35:38;97564.03;;;11.67;43.34
39491;BME280;25175;50.140;18.990;2023-04-25T12:38:44;97567.25;;;11.69;42.92
39491;BME280;25175;50.140;18.990;2023-04-25T12:41:52;97569.63;;;11.70;42.74
39491;BME280;25175;50.140;18.990;2023-04-25T12:45:24;97558.88;;;11.72;42.96
39491;BME280;25175;50.140;18.990;2023-04-25T12:48:32;97553.69;;;11.77;43.56
39491;BME280;25175;50.140;18.990;2023-04-25T12:51:42;97546.13;;;11.80;43.32
39491;BME280;25175;50.140;18.990;2023-04-25T12:54:48;97558.91;;;11.88;42.82
39491;BME280;25175;50.140;18.990;2023-04-25T12:57:58;97564.22;;;11.77;42.89
39491;BME280;25175;50.140;18.990;2023-04-25T13:01:04;97554.41;;;11.89;42.74
39491;BME280;25175;50.140;18.990;2023-04-25T13:04:10;97547.88;;;11.91;43.11
39491;BME280;25175;50.140;18.990;2023-04-25T13:07:19;97546.63;;;11.94;43.05
39491;BME280;25175;50.140;18.990;2023-04-25T13:10:25;97546.94;;;11.97;43.12
39491;BME280;25175;50.140;18.990;2023-04-25T13:13:30;97549.94;;;12.01;42.85
39491;BME280;25175;50.140;18.990;2023-04-25T13:16:39;97542.28;;;11.99;42.10
39491;BME280;25175;50.140;18.990;2023-04-25T13:19:48;97537.03;;;11.99;42.00
39491;BME280;25175;50.140;18.990;2023-04-25T13:22:57;97543.72;;;12.07;42.64
39491;BME280;25175;50.140;18.990;2023-04-25T13:26:02;97542.75;;;12.13;42.65
39491;BME280;25175;50.140;18.990;2023-04-25T13:29:11;97543.16;;;12.21;41.69
39491;BME280;25175;50.140;18.990;2023-04-25T13:32:26;97537.00;;;12.16;41.31
39491;BME280;25175;50.140;18.990;2023-04-25T13:35:34;97543.94;;;12.05;40.85
39491;BME280;25175;50.140;18.990;2023-04-25T13:38:43;97551.19;;;11.98;41.01
39491;BME280;25175;50.140;18.990;2023-04-25T13:45:36;97533.16;;;11.90;41.89
39491;BME280;25175;50.140;18.990;2023-04-25T13:49:01;97495.47;;;11.68;41.90
39491;BME280;25175;50.140;18.990;2023-04-25T13:52:10;97542.84;;;12.01;42.19
39491;BME280;25175;50.140;18.990;2023-04-25T13:55:19;97546.59;;;12.05;41.73
39491;BME280;25175;50.140;18.990;2023-04-25T13:58:24;97539.72;;;12.04;41.13
39491;BME280;25175;50.140;18.990;2023-04-25T14:01:44;97551.53;;;12.02;41.37
39491;BME280;25175;50.140;18.990;2023-04-25T14:04:49;97538.28;;;11.97;41.54
39491;BME280;25175;50.140;18.990;2023-04-25T14:07:57;97546.44;;;12.12;42.12
39491;BME280;25175;50.140;18.990;2023-04-25T14:11:18;97510.06;;;11.92;41.18
39491;BME280;25175;50.140;18.990;2023-04-25T14:14:24;97549.19;;;12.22;41.59
39491;BME280;25175;50.140;18.990;2023-04-25T14:17:49;97550.06;;;12.27;40.37
39491;BME280;25175;50.140;18.990;2023-04-25T14:20:55;97547.03;;;12.35;41.53
39491;BME280;25175;50.140;18.990;2023-04-25T14:24:00;97550.94;;;12.33;40.44
39491;BME280;25175;50.140;18.990;2023-04-25T14:27:09;97553.47;;;12.28;40.63
39491;BME280;25175;50.140;18.990;2023-04-25T14:30:17;97549.25;;;12.27;41.03
39491;BME280;25175;50.140;18.990;2023-04-25T14:33:25;97558.59;;;12.34;41.92
39491;BME280;25175;50.140;18.990;2023-04-25T14:36:30;97559.94;;;12.37;41.10
39491;BME280;25175;50.140;18.990;2023-04-25T14:39:38;97550.69;;;12.34;40.52
39491;BME280;25175;50.140;18.990;2023-04-25T14:42:51;97548.94;;;12.40;41.12
39491;BME280;25175;50.140;18.990;2023-04-25T14:45:57;97546.94;;;12.47;41.70
39491;BME280;25175;50.140;18.990;2023-04-25T14:49:05;97553.53;;;12.49;41.43
39491;BME280;25175;50.140;18.990;2023-04-25T14:52:11;97541.13;;;12.45;40.10
39491;BME280;25175;50.140;18.990;2023-04-25T14:55:21;97546.38;;;12.45;40.46
39491;BME280;25175;50.140;18.990;2023-04-25T14:58:36;97552.13;;;12.42;40.49
39491;BME280;25175;50.140;18.990;2023-04-25T15:01:51;97552.13;;;12.42;41.00
39491;BME280;25175;50.140;18.990;2023-04-25T15:05:10;97555.22;;;12.39;40.93
39491;BME280;25175;50.140;18.990;2023-04-25T15:08:16;97550.53;;;12.41;41.28
39491;BME280;25175;50.140;18.990;2023-04-25T15:11:23;97533.31;;;12.33;40.51
39491;BME280;25175;50.140;18.990;2023-04-25T15:14:50;97549.56;;;12.47;40.93
39491;BME280;25175;50.140;18.990;2023-04-25T15:17:57;97541.38;;;12.43;40.74
39491;BME280;25175;50.140;18.990;2023-04-25T15:21:03;97543.09;;;12.38;40.89
39491;BME280;25175;50.140;18.990;2023-04-25T15:24:11;97549.91;;;12.34;40.98
39491;BME280;25175;50.140;18.990;2023-04-25T15:27:18;97548.06;;;12.34;41.65
39491;BME280;25175;50.140;18.990;2023-04-25T15:30:27;97552.47;;;12.29;40.90
39491;BME280;25175;50.140;18.990;2023-04-25T15:33:32;97493.84;;;11.79;40.62
39491;BME280;25175;50.140;18.990;2023-04-25T15:36:41;97555.72;;;12.19;41.14
39491;BME280;25175;50.140;18.990;2023-04-25T15:40:13;97566.50;;;12.18;40.99
39491;BME280;25175;50.140;18.990;2023-04-25T15:43:20;97559.63;;;12.17;41.03
39491;BME280;25175;50.140;18.990;2023-04-25T15:46:31;97562.84;;;12.19;41.06
39491;BME280;25175;50.140;18.990;2023-04-25T15:49:43;97562.84;;;12.19;41.27
39491;BME280;25175;50.140;18.990;2023-04-25T15:52:50;97559.16;;;12.20;41.00
39491;BME280;25175;50.140;18.990;2023-04-25T15:55:57;97563.97;;;12.23;41.47
39491;BME280;25175;50.140;18.990;2023-04-25T15:59:02;97558.19;;;12.26;41.59
39491;BME280;25175;50.140;18.990;2023-04-25T16:02:17;97560.06;;;12.25;41.74
39491;BME280;25175;50.140;18.990;2023-04-25T16:05:23;97551.81;;;12.22;41.51
39491;BME280;25175;50.140;18.990;2023-04-25T16:08:31;97557.00;;;12.17;41.43
39491;BME280;25175;50.140;18.990;2023-04-25T16:11:37;97559.63;;;12.17;42.06
39491;BME280;25175;50.140;18.990;2023-04-25T16:14:45;97559.16;;;12.20;42.03
39491;BME280;25175;50.140;18.990;2023-04-25T16:17:54;97568.09;;;12.19;42.19
39491;BME280;25175;50.140;18.990;2023-04-25T16:21:00;97578.84;;;12.17;41.88
39491;BME280;25175;50.140;18.990;2023-04-25T16:24:05;97572.53;;;12.18;42.28
39491;BME280;25175;50.140;18.990;2023-04-25T16:27:14;97572.22;;;12.15;41.57
39491;BME280;25175;50.140;18.990;2023-04-25T16:30:21;97580.13;;;12.15;42.02
39491;BME280;25175;50.140;18.990;2023-04-25T16:33:30;97579.56;;;12.13;41.41
39491;BME280;25175;50.140;18.990;2023-04-25T16:36:36;97583.25;;;12.12;42.09
39491;BME280;25175;50.140;18.990;2023-04-25T16:39:43;97593.19;;;12.10;41.86
39491;BME280;25175;50.140;18.990;2023-04-25T16:42:50;97593.41;;;12.08;42.26
39491;BME280;25175;50.140;18.990;2023-04-25T16:45:57;97578.59;;;12.02;42.10
39491;BME280;25175;50.140;18.990;2023-04-25T16:49:05;97579.28;;;11.98;41.75
39491;BME280;25175;50.140;18.990;2023-04-25T16:52:12;97577.63;;;11.92;41.48
39491;BME280;25175;50.140;18.990;2023-04-25T16:55:18;97576.41;;;11.83;41.48
39491;BME280;25175;50.140;18.990;2023-04-25T16:58:24;97592.66;;;11.80;41.86
39491;BME280;25175;50.140;18.990;2023-04-25T17:05:21;97594.16;;;11.76;41.42
39491;BME280;25175;50.140;18.990;2023-04-25T17:08:26;97601.97;;;11.71;41.07
39491;BME280;25175;50.140;18.990;2023-04-25T17:11:32;97588.97;;;11.64;40.29
39491;BME280;25175;50.140;18.990;2023-04-25T17:18:14;97603.66;;;11.49;40.45
39491;BME280;25175;50.140;18.990;2023-04-25T17:21:32;97610.31;;;11.40;40.48
39491;BME280;25175;50.140;18.990;2023-04-25T17:24:43;97610.69;;;11.32;40.52
39491;BME280;25175;50.140;18.990;2023-04-25T17:27:49;97615.06;;;11.26;40.36
39491;BME280;25175;50.140;18.990;2023-04-25T17:30:55;97622.03;;;11.21;40.41
39491;BME280;25175;50.140;18.990;2023-04-25T17:34:00;97618.25;;;11.17;40.88
39491;BME280;25175;50.140;18.990;2023-04-25T17:41:22;97627.88;;;11.11;41.10
39491;BME280;25175;50.140;18.990;2023-04-25T17:44:32;97629.69;;;11.11;41.27
39491;BME280;25175;50.140;18.990;2023-04-25T17:47:37;97632.53;;;11.09;41.61
39491;BME280;25175;50.140;18.990;2023-04-25T17:50:45;97647.97;;;11.06;41.54
39491;BME280;25175;50.140;18.990;2023-04-25T17:53:50;97658.94;;;11.03;41.97
39491;BME280;25175;50.140;18.990;2023-04-25T18:00:44;97648.31;;;10.98;42.50
39491;BME280;25175;50.140;18.990;2023-04-25T18:03:51;97662.16;;;10.93;42.36